Flight Track Log - Related Links

Times and Time Zones

All times are in EDT time to prevent confusion due to time zone crossing. See the FLG3993 flight status page for this flight to view local times or setup timezone preferences in your user account.

Time Position Orientation Groundspeed Altitude Reporting Facility
EDT Latitude Longitude Course Direction KTS MPH feet Rate Location/Type
Sat 08:12:27 PM 42.2097 -83.3669 North 153 176 1,300  Level Cleveland Center
Sat 08:13:40 PM 42.2058 -83.4397 266° West 220 253 4,000 1,209 Climbing Cleveland Center
Sat 08:14:41 PM 42.2417 -83.5114 304° West 249 287 4,000  Level Cleveland Center
Sat 08:15:00 PM 42.4320 -83.3500 North  Level FlightAware Approximate
Sat 08:15:48 PM 42.3092 -83.5594 332° Northwest 262 302 4,000  Level Cleveland Center
Sat 08:16:00 PM 42.5094 -83.3500 North  Level FlightAware Approximate
Sat 08:16:49 PM 42.3819 -83.5628 358° North 264 304 4,000  Level Cleveland Center
Sat 08:17:00 PM 42.5868 -83.3500 North  Level FlightAware Approximate
Sat 08:17:50 PM 42.4547 -83.5692 356° North 262 302 4,000  Level Cleveland Center
Sat 08:18:51 PM 42.5342 -83.5644 North 267 307 4,000  Level Cleveland Center
Sat 08:20:00 PM 42.6383 -83.6173 340° North  Level Estimated
Sat 08:27:00 PM 43.1067 -83.8161 336° Northwest  Level FlightAware Approximate
Sat 08:28:00 PM 43.1711 -83.8555 336° Northwest  Level FlightAware Approximate
Sat 08:29:00 PM 43.2354 -83.8952 335° Northwest  Level FlightAware Approximate
Sat 08:30:00 PM 43.2994 -83.9359 335° Northwest  Level FlightAware Approximate
Sat 08:31:00 PM 43.3633 -83.9766 335° Northwest  Level FlightAware Approximate
Sat 08:32:00 PM 43.4283 -84.0141 340° North  Level FlightAware Approximate
Sat 08:33:00 PM 43.4934 -84.0511 334° Northwest  Level FlightAware Approximate
Sat 08:34:00 PM 43.5167 -84.0667 334° Northwest  Level FlightAware Approximate
Sat 08:35:00 PM 43.5329 -84.0796 334° Northwest  Level Estimated
Sat 08:36:00 PM 43.5329 -84.0796 334° Northwest  Level Estimated
Sat 08:37:00 PM 43.5329 -84.0796 334° Northwest  Level Estimated

Login

Don't have an account? Register now (free) for customized features, flight alerts, and more!